createdAt,value
2018-06-02T00:02:22.745Z,95888.86
2018-06-02T00:04:50.972Z,95891.03
2018-06-02T00:07:19.208Z,95894.09
2018-06-02T00:09:47.453Z,95883.48
2018-06-02T00:12:16.461Z,95889.98
2018-06-02T00:14:44.692Z,95890.41
2018-06-02T00:17:12.942Z,95896.78
2018-06-02T00:19:41.301Z,95896.55
2018-06-02T00:22:09.538Z,95900.15
2018-06-02T00:24:38.652Z,95896.67
2018-06-02T00:27:07.914Z,95899.23
2018-06-02T00:29:36.154Z,95907.98
2018-06-02T00:32:04.386Z,95907.77
2018-06-02T00:34:33.402Z,95905.99
2018-06-02T00:37:01.634Z,95912.15
2018-06-02T00:39:29.870Z,95910.30
2018-06-02T00:41:58.119Z,95910.75
2018-06-02T00:44:26.358Z,95904.77
2018-06-02T00:46:54.761Z,95910.23
2018-06-02T00:49:23.762Z,95908.58
2018-06-02T00:51:52.762Z,95904.60
2018-06-02T00:57:54.930Z,95906.97
2018-06-02T01:00:23.178Z,95904.76
2018-06-02T01:02:51.519Z,95909.61
2018-06-02T01:05:19.734Z,95902.47
2018-06-02T01:07:47.982Z,95900.87
2018-06-02T01:10:16.214Z,95902.17
2018-06-02T01:12:45.526Z,95898.06
2018-06-02T01:15:13.766Z,95896.01
2018-06-02T01:17:41.994Z,95901.16
2018-06-02T01:20:10.238Z,95907.81
2018-06-02T01:22:39.246Z,95910.38
2018-06-02T01:25:07.488Z,95915.59
2018-06-02T01:27:35.719Z,95911.50
2018-06-02T01:30:03.950Z,95911.97
2018-06-02T01:32:33.374Z,95912.95
2018-06-02T01:35:01.605Z,95912.91
2018-06-02T01:37:29.840Z,95913.65
2018-06-02T01:39:58.098Z,95909.42
2018-06-02T01:42:27.090Z,95904.72
2018-06-02T01:44:56.091Z,95902.89
2018-06-02T01:47:24.341Z,95902.21
2018-06-02T01:49:53.161Z,95898.56
2018-06-02T01:52:21.409Z,95900.63
2018-06-02T01:54:49.642Z,95905.90
2018-06-02T01:57:17.877Z,95898.89
2018-06-02T01:59:46.122Z,95894.97
2018-06-02T02:02:14.406Z,95902.85
2018-06-02T02:04:42.907Z,95901.80
2018-06-02T02:07:11.902Z,95897.00
2018-06-02T02:09:40.139Z,95897.44
2018-06-02T02:12:08.553Z,95893.62
2018-06-02T02:14:37.554Z,95889.66
2018-06-02T02:17:05.786Z,95893.11
2018-06-02T02:19:34.030Z,95893.78
2018-06-02T02:22:02.267Z,95897.78
2018-06-02T02:24:31.261Z,95895.64
2018-06-02T02:27:00.284Z,95899.20
2018-06-02T02:29:28.511Z,95903.14
2018-06-02T02:31:56.753Z,95900.34
2018-06-02T02:34:24.993Z,95899.39
2018-06-02T02:36:53.237Z,95907.23
2018-06-02T02:39:21.642Z,95910.81
2018-06-02T02:41:50.734Z,95901.86
2018-06-02T02:44:19.734Z,95908.72
2018-06-02T02:46:48.412Z,95911.77
2018-06-02T02:49:17.405Z,95910.38
2018-06-02T02:51:46.502Z,95913.00
2018-06-02T02:54:15.519Z,95916.19
2018-06-02T02:56:43.757Z,95913.75
2018-06-02T02:59:11.981Z,95913.63
2018-06-02T03:01:40.226Z,95918.55
2018-06-02T03:04:08.462Z,95921.09
2018-06-02T03:06:36.698Z,95918.84
2018-06-02T03:09:04.950Z,95922.47
2018-06-02T03:11:33.199Z,95921.11
2018-06-02T03:14:01.437Z,95918.81
2018-06-02T03:16:29.882Z,95925.69
2018-06-02T03:18:58.130Z,95924.30
2018-06-02T03:21:26.358Z,95928.63
2018-06-02T03:23:54.609Z,95929.95
2018-06-02T03:26:22.834Z,95931.20
2018-06-02T03:28:51.070Z,95922.44
2018-06-02T03:31:19.314Z,95923.73
2018-06-02T03:33:48.333Z,95922.30
2018-06-02T03:36:17.337Z,95927.20
2018-06-02T03:38:45.569Z,95930.84
2018-06-02T03:41:15.432Z,95924.95
2018-06-02T03:43:43.678Z,95931.95
2018-06-02T03:46:12.698Z,95936.73
2018-06-02T03:48:40.943Z,95934.23
2018-06-02T03:51:09.941Z,95939.50
2018-06-02T03:53:38.945Z,95938.82
2018-06-02T03:56:07.190Z,95939.09
2018-06-02T03:58:35.442Z,95942.69
2018-06-02T04:01:03.686Z,95939.69
2018-06-02T04:03:31.917Z,95941.17
2018-06-02T04:06:00.161Z,95944.28
2018-06-02T04:08:28.394Z,95945.73
2018-06-02T04:10:56.626Z,95945.06
2018-06-02T04:13:24.878Z,95944.30
2018-06-02T04:15:53.156Z,95953.44
2018-06-02T04:18:22.317Z,95959.05
2018-06-02T04:20:50.581Z,95960.34
2018-06-02T04:23:19.581Z,95960.10
2018-06-02T04:25:48.599Z,95959.02
2018-06-02T04:28:16.842Z,95955.13
2018-06-02T04:30:45.845Z,95956.56
2018-06-02T04:33:14.854Z,95954.66
2018-06-02T04:35:43.216Z,95953.64
2018-06-02T04:38:11.460Z,95951.88
2018-06-02T04:40:39.694Z,95952.42
2018-06-02T04:43:07.943Z,95955.21
2018-06-02T04:45:36.963Z,95951.83
2018-06-02T04:48:05.191Z,95960.87
2018-06-02T04:50:33.438Z,95961.53
2018-06-02T04:53:01.682Z,95959.98
2018-06-02T04:55:29.913Z,95962.95
2018-06-02T04:57:58.181Z,95972.27
2018-06-02T05:00:26.425Z,95973.88
2018-06-02T05:02:54.663Z,95975.02
2018-06-02T05:05:23.689Z,95972.50
2018-06-02T05:07:51.914Z,95969.13
2018-06-02T05:10:20.926Z,95977.30
2018-06-02T05:12:49.166Z,95978.13
2018-06-02T05:15:17.401Z,95979.85
2018-06-02T05:17:45.634Z,95982.69
2018-06-02T05:20:14.645Z,95967.64
2018-06-02T05:22:43.642Z,95970.61
2018-06-02T05:25:11.890Z,95969.46
2018-06-02T05:27:40.138Z,95969.05
2018-06-02T05:30:08.390Z,95965.88
2018-06-02T05:32:36.639Z,95976.30
2018-06-02T05:35:05.646Z,95978.68
2018-06-02T05:37:33.898Z,95978.25
2018-06-02T05:40:03.209Z,95973.17
2018-06-02T05:42:31.450Z,95973.94
2018-06-02T05:44:59.682Z,95968.89
2018-06-02T05:47:27.929Z,95970.52
2018-06-02T05:49:56.934Z,95972.41
2018-06-02T05:52:25.302Z,95980.36
2018-06-02T05:54:54.302Z,95976.17
2018-06-02T05:57:22.582Z,95974.20
2018-06-02T05:59:50.861Z,95977.48
2018-06-02T06:02:19.842Z,95978.69
2018-06-02T06:04:48.841Z,95977.76
2018-06-02T06:07:17.088Z,95972.48
2018-06-02T06:09:45.318Z,95966.16
2018-06-02T06:12:13.562Z,95970.77
2018-06-02T06:14:42.562Z,95967.77
2018-06-02T06:17:10.811Z,95968.30
2018-06-02T06:19:39.067Z,95958.23
2018-06-02T06:22:07.289Z,95961.73
2018-06-02T06:24:35.533Z,95963.59
2018-06-02T06:27:03.770Z,95963.45
2018-06-02T06:29:32.006Z,95965.44
2018-06-02T06:32:01.027Z,95965.11
2018-06-02T06:34:29.257Z,95968.30
2018-06-02T06:36:57.493Z,95964.20
2018-06-02T06:39:25.767Z,95972.44
2018-06-02T06:41:54.016Z,95963.45
2018-06-02T06:44:22.267Z,95960.87
2018-06-02T06:46:50.497Z,95962.73
2018-06-02T06:49:18.746Z,95960.92
2018-06-02T06:51:47.019Z,95959.29
2018-06-02T06:54:15.250Z,95955.55
2018-06-02T06:56:43.485Z,95958.38
2018-06-02T06:59:11.746Z,95970.64
2018-06-02T07:01:39.974Z,95963.36
2018-06-02T07:04:08.986Z,95953.45
2018-06-02T07:06:37.990Z,95955.73
2018-06-02T07:09:06.983Z,95957.36
2018-06-02T07:11:35.999Z,95957.56
2018-06-02T07:14:04.239Z,95956.29
2018-06-02T07:16:32.490Z,95956.92
2018-06-02T07:19:00.722Z,95962.45
2018-06-02T07:21:28.958Z,95954.05
2018-06-02T07:23:57.205Z,95963.24
2018-06-02T07:26:25.430Z,95961.89
2018-06-02T07:28:54.451Z,95964.92
2018-06-02T07:31:22.681Z,95959.58
2018-06-02T07:33:50.920Z,95963.36
2018-06-02T07:36:19.156Z,95954.28
2018-06-02T07:38:47.402Z,95955.85
2018-06-02T07:41:15.702Z,95956.77
2018-06-02T07:43:44.703Z,95956.02
2018-06-02T07:46:12.951Z,95961.11
2018-06-02T07:48:41.195Z,95962.04
2018-06-02T07:51:09.425Z,95958.35
2018-06-02T07:53:37.677Z,95955.61
2018-06-02T07:56:05.918Z,95962.52
2018-06-02T07:58:34.157Z,95965.78
2018-06-02T08:01:02.398Z,95954.14
2018-06-02T08:03:30.694Z,95956.89
2018-06-02T08:05:59.709Z,95952.29
2018-06-02T08:08:27.977Z,95963.00
2018-06-02T08:10:56.211Z,95959.53
2018-06-02T08:13:24.462Z,95961.13
2018-06-02T08:15:52.693Z,95960.56
2018-06-02T08:18:21.694Z,95953.23
2018-06-02T08:20:49.940Z,95956.56
2018-06-02T08:23:18.193Z,95955.02
2018-06-02T08:25:46.434Z,95954.00
2018-06-02T08:28:14.661Z,95954.23
2018-06-02T08:30:42.914Z,95957.64
2018-06-02T08:33:11.157Z,95961.50
2018-06-02T08:35:39.389Z,95962.39
2018-06-02T08:38:07.634Z,95961.11
2018-06-02T08:40:35.874Z,95962.52
2018-06-02T08:43:04.102Z,95960.16
2018-06-02T08:45:32.352Z,95958.27
2018-06-02T08:48:00.573Z,95971.96
2018-06-02T08:50:29.583Z,95968.89
2018-06-02T08:52:58.734Z,95968.80
2018-06-02T08:55:26.970Z,95969.47
2018-06-02T08:57:55.201Z,95966.36
2018-06-02T09:00:23.481Z,95957.02
2018-06-02T09:02:51.690Z,95961.92
2018-06-02T09:05:19.952Z,95959.16
2018-06-02T09:07:48.935Z,95959.84
2018-06-02T09:10:17.942Z,95955.64
2018-06-02T09:12:46.996Z,95959.59
2018-06-02T09:15:15.522Z,95958.48
2018-06-02T09:17:44.517Z,95960.31
2018-06-02T09:20:13.516Z,95962.56
2018-06-02T09:22:41.773Z,95955.53
2018-06-02T09:25:10.772Z,95963.68
2018-06-02T09:27:39.019Z,95961.09
2018-06-02T09:30:07.258Z,95959.48
2018-06-02T09:32:35.508Z,95955.95
2018-06-02T09:35:03.830Z,95957.33
2018-06-02T09:37:32.780Z,95947.95
2018-06-02T09:40:01.026Z,95947.41
2018-06-02T09:42:29.271Z,95952.94
2018-06-02T09:44:57.507Z,95949.83
2018-06-02T09:47:25.753Z,95949.60
2018-06-02T09:49:53.990Z,95956.90
2018-06-02T09:52:22.244Z,95952.05
2018-06-02T09:54:50.483Z,95949.28
2018-06-02T09:57:18.726Z,95939.88
2018-06-02T09:59:47.258Z,95943.02
2018-06-02T10:02:16.261Z,95941.72
2018-06-02T10:04:44.498Z,95942.38
2018-06-02T10:07:12.746Z,95942.12
2018-06-02T10:09:40.990Z,95940.00
2018-06-02T10:12:09.282Z,95935.22
2018-06-02T10:14:37.514Z,95940.92
2018-06-02T10:17:06.106Z,95930.20
2018-06-02T10:19:35.102Z,95925.13
2018-06-02T10:22:04.105Z,95923.06
2018-06-02T10:24:32.356Z,95930.50
2018-06-02T10:27:00.585Z,95924.08
2018-06-02T10:29:29.032Z,95932.03
2018-06-02T10:31:58.034Z,95930.47
2018-06-02T10:34:26.270Z,95932.48
2018-06-02T10:36:54.509Z,95933.97
2018-06-02T10:39:22.746Z,95932.74
2018-06-02T10:41:51.754Z,95931.00
2018-06-02T10:44:20.003Z,95934.38
2018-06-02T10:46:48.999Z,95933.48
2018-06-02T10:49:18.029Z,95942.72
2018-06-02T10:51:46.261Z,95931.29
2018-06-02T10:54:15.277Z,95933.30
2018-06-02T10:56:43.510Z,95931.61
2018-06-02T10:59:11.758Z,95923.59
2018-06-02T11:01:40.001Z,95921.42
2018-06-02T11:04:09.006Z,95923.05
2018-06-02T11:06:37.237Z,95921.59
2018-06-02T11:09:06.225Z,95918.05
2018-06-02T11:11:34.430Z,95915.73
2018-06-02T11:14:03.454Z,95911.91
2018-06-02T11:16:31.688Z,95916.41
2018-06-02T11:19:00.693Z,95902.64
2018-06-02T11:21:29.712Z,95906.08
2018-06-02T11:23:57.970Z,95899.16
2018-06-02T11:26:26.209Z,95897.05
2018-06-02T11:28:54.455Z,95894.05
2018-06-02T11:31:22.707Z,95887.42
2018-06-02T11:33:50.941Z,95885.28
2018-06-02T11:36:19.166Z,95884.06
2018-06-02T11:38:47.414Z,95874.16
2018-06-02T11:41:16.417Z,95876.00
2018-06-02T11:43:44.670Z,95871.11
2018-06-02T11:46:13.779Z,95873.62
2018-06-02T11:48:42.782Z,95869.77
2018-06-02T11:51:11.042Z,95867.66
2018-06-02T11:53:40.034Z,95863.42
2018-06-02T11:56:09.045Z,95863.92
2018-06-02T11:58:37.336Z,95862.80
2018-06-02T12:01:05.619Z,95866.66
2018-06-02T12:03:33.887Z,95863.37
2018-06-02T12:06:02.125Z,95861.64
2018-06-02T12:08:31.338Z,95857.03
2018-06-02T12:11:00.342Z,95856.92
2018-06-02T12:13:28.573Z,95855.32
2018-06-02T12:15:56.817Z,95844.37
2018-06-02T12:18:25.049Z,95839.89
2018-06-02T12:20:54.049Z,95844.80
2018-06-02T12:23:22.296Z,95834.55
2018-06-02T12:25:50.528Z,95834.17
2018-06-02T12:28:18.800Z,95834.66
2018-06-02T12:30:47.009Z,95833.75
2018-06-02T12:33:15.261Z,95841.17
2018-06-02T12:35:43.510Z,95837.58
2018-06-02T12:38:11.783Z,95838.53
2018-06-02T12:40:40.031Z,95834.38
2018-06-02T12:43:08.268Z,95822.98
2018-06-02T12:45:36.501Z,95819.11
2018-06-02T12:48:05.514Z,95829.91
2018-06-02T12:50:33.750Z,95823.19
2018-06-02T12:53:02.758Z,95817.47
2018-06-02T12:55:31.774Z,95823.29
2018-06-02T12:58:00.011Z,95822.06
2018-06-02T13:00:28.614Z,95819.98
2018-06-02T13:02:57.620Z,95814.09
2018-06-02T13:05:25.911Z,95810.26
2018-06-02T13:07:54.141Z,95809.66
2018-06-02T13:10:22.403Z,95812.53
2018-06-02T13:12:50.638Z,95801.34
2018-06-02T13:15:18.874Z,95798.34
2018-06-02T13:17:47.889Z,95798.25
2018-06-02T13:20:16.122Z,95793.66
2018-06-02T13:22:44.358Z,95794.67
2018-06-02T13:25:12.611Z,95792.89
2018-06-02T13:27:40.846Z,95791.22
2018-06-02T13:30:09.102Z,95793.72
2018-06-02T13:32:37.346Z,95796.89
2018-06-02T13:35:05.583Z,95787.22
2018-06-02T13:37:33.831Z,95780.88
2018-06-02T13:40:02.086Z,95784.59
2018-06-02T13:42:30.317Z,95775.02
2018-06-02T13:44:59.325Z,95781.18
2018-06-02T13:47:28.337Z,95771.13
2018-06-02T13:49:56.570Z,95778.31
2018-06-02T13:52:24.814Z,95771.92
2018-06-02T13:54:53.074Z,95768.17
2018-06-02T13:57:21.527Z,95776.52
2018-06-02T13:59:50.534Z,95778.04
2018-06-02T14:02:18.765Z,95776.55
2018-06-02T14:04:48.530Z,95776.52
2018-06-02T14:07:16.757Z,95770.75
2018-06-02T14:09:45.001Z,95776.02
2018-06-02T14:12:13.270Z,95774.17
2018-06-02T14:14:41.509Z,95778.82
2018-06-02T14:17:10.522Z,95768.90
2018-06-02T14:19:38.766Z,95769.86
2018-06-02T14:22:07.764Z,95764.20
2018-06-02T14:24:36.777Z,95765.73
2018-06-02T14:27:05.024Z,95760.53
2018-06-02T14:29:33.262Z,95759.00
2018-06-02T14:32:01.494Z,95762.73
2018-06-02T14:34:29.731Z,95765.36
2018-06-02T14:36:57.989Z,95756.88
2018-06-02T14:39:26.229Z,95757.29
2018-06-02T14:41:54.474Z,95756.31
2018-06-02T14:44:23.494Z,95757.22
2018-06-02T14:46:51.741Z,95747.24
2018-06-02T14:49:19.990Z,95750.85
2018-06-02T14:51:48.237Z,95751.08
2018-06-02T14:54:16.469Z,95744.05
2018-06-02T14:56:45.781Z,95744.42
2018-06-02T14:59:14.782Z,95736.93
2018-06-02T15:01:43.024Z,95737.80
2018-06-02T15:04:11.538Z,95739.97
2018-06-02T15:06:39.774Z,95739.05
2018-06-02T15:09:08.116Z,95734.66
2018-06-02T15:11:36.369Z,95734.94
2018-06-02T15:14:04.602Z,95733.56
2018-06-02T15:16:32.841Z,95735.55
2018-06-02T15:19:01.082Z,95730.95
2018-06-02T15:21:30.216Z,95732.20
2018-06-02T15:23:58.484Z,95733.16
2018-06-02T15:26:26.727Z,95728.14
2018-06-02T15:28:55.742Z,95726.96
2018-06-02T15:31:23.997Z,95717.59
2018-06-02T15:33:52.222Z,95713.89
2018-06-02T15:36:20.469Z,95714.75
2018-06-02T15:38:48.845Z,95707.56
2018-06-02T15:41:17.094Z,95710.14
2018-06-02T15:43:45.346Z,95710.34
2018-06-02T15:46:13.589Z,95710.44
2018-06-02T15:48:41.886Z,95716.05
2018-06-02T15:51:10.072Z,95710.87
2018-06-02T15:53:38.306Z,95719.33
2018-06-02T15:56:06.769Z,95711.72
2018-06-02T15:58:35.013Z,95710.59
2018-06-02T16:01:03.258Z,95710.53
2018-06-02T16:03:31.527Z,95712.05
2018-06-02T16:05:59.737Z,95712.36
2018-06-02T16:08:28.737Z,95722.40
2018-06-02T16:10:56.981Z,95721.95
2018-06-02T16:13:25.858Z,95722.23
2018-06-02T16:15:54.107Z,95720.49
2018-06-02T16:18:22.359Z,95723.36
2018-06-02T16:20:50.588Z,95723.92
2018-06-02T16:23:18.818Z,95715.69
2018-06-02T16:25:47.838Z,95724.17
2018-06-02T16:28:16.070Z,95721.30
2018-06-02T16:30:44.304Z,95716.13
2018-06-02T16:33:12.557Z,95717.90
2018-06-02T16:35:40.785Z,95713.91
2018-06-02T16:38:09.018Z,95715.03
2018-06-02T16:40:37.584Z,95707.59
2018-06-02T16:43:05.819Z,95703.24
2018-06-02T16:45:34.057Z,95700.80
2018-06-02T16:48:02.335Z,95704.56
2018-06-02T16:50:30.577Z,95703.30
2018-06-02T16:52:59.593Z,95698.09
2018-06-02T16:55:27.873Z,95702.23
2018-06-02T16:57:56.930Z,95698.46
2018-06-02T17:00:25.981Z,95709.59
2018-06-02T17:02:54.272Z,95713.91
2018-06-02T17:05:22.589Z,95712.20
2018-06-02T17:07:51.597Z,95714.86
2018-06-02T17:10:20.073Z,95717.67
2018-06-02T17:12:48.305Z,95724.38
2018-06-02T17:15:18.096Z,95721.38
2018-06-02T17:17:46.333Z,95718.13
2018-06-02T17:20:14.566Z,95722.27
2018-06-02T17:22:42.807Z,95723.05
2018-06-02T17:25:11.053Z,95721.50
2018-06-02T17:27:40.061Z,95721.88
2018-06-02T17:30:08.298Z,95730.80
2018-06-02T17:32:36.542Z,95737.05
2018-06-02T17:35:04.777Z,95730.51
2018-06-02T17:37:33.890Z,95730.86
2018-06-02T17:40:02.122Z,95729.98
2018-06-02T17:42:30.353Z,95731.84
2018-06-02T17:44:58.602Z,95738.63
2018-06-02T17:47:26.835Z,95734.63
2018-06-02T17:49:55.075Z,95734.11
2018-06-02T17:52:23.334Z,95740.86
2018-06-02T17:54:51.574Z,95741.16
2018-06-02T17:57:19.805Z,95741.34
2018-06-02T17:59:48.069Z,95737.77
2018-06-02T18:02:16.305Z,95738.90
2018-06-02T18:04:45.310Z,95735.59
2018-06-02T18:07:14.310Z,95740.22
2018-06-02T18:09:43.330Z,95746.65
2018-06-02T18:12:11.562Z,95748.41
2018-06-02T18:14:40.578Z,95750.91
2018-06-02T18:17:08.822Z,95745.33
2018-06-02T18:19:37.838Z,95745.34
2018-06-02T18:22:06.846Z,95748.57
2018-06-02T18:24:35.096Z,95740.58
2018-06-02T18:30:03.660Z,95744.28
2018-06-02T18:32:31.943Z,95742.90
2018-06-02T18:35:00.234Z,95740.13
2018-06-02T18:37:29.370Z,95740.26
2018-06-02T18:39:57.900Z,95753.09
2018-06-02T18:42:26.224Z,95751.09
2018-06-02T18:44:54.563Z,95749.56
2018-06-02T18:47:22.959Z,95754.49
2018-06-02T18:49:51.293Z,95756.91
2018-06-02T18:52:19.617Z,95759.08
2018-06-02T18:54:47.940Z,95762.36
2018-06-02T18:57:16.215Z,95764.53
2018-06-02T18:59:44.581Z,95770.80
2018-06-02T19:02:12.930Z,95770.16
2018-06-02T19:04:41.224Z,95769.21
2018-06-02T19:07:09.519Z,95774.27
2018-06-02T19:09:38.839Z,95777.06
2018-06-02T19:12:07.886Z,95780.59
2018-06-02T19:14:36.166Z,95783.80
2018-06-02T19:17:04.466Z,95784.27
2018-06-02T19:19:32.744Z,95789.72
2018-06-02T19:22:01.346Z,95790.09
2018-06-02T19:24:29.635Z,95794.94
2018-06-02T19:26:57.940Z,95793.03
2018-06-02T19:29:26.294Z,95800.08
2018-06-02T19:31:54.587Z,95810.56
2018-06-02T19:34:22.900Z,95805.59
2018-06-02T19:36:51.757Z,95804.45
2018-06-02T19:39:20.827Z,95806.31
2018-06-02T19:41:49.109Z,95806.31
2018-06-02T19:44:17.398Z,95808.63
2018-06-02T19:46:45.676Z,95810.05
2018-06-02T19:49:13.994Z,95815.31
2018-06-02T19:51:42.296Z,95811.41
2018-06-02T19:54:10.589Z,95819.16
2018-06-02T19:56:39.675Z,95817.78
2018-06-02T19:59:07.992Z,95822.97
2018-06-02T20:01:36.330Z,95824.73
2018-06-02T20:04:04.643Z,95820.83
2018-06-02T20:06:32.940Z,95828.59
2018-06-02T20:09:01.232Z,95829.55
2018-06-02T20:11:30.291Z,95831.13
2018-06-02T20:13:58.573Z,95836.56
2018-06-02T20:16:27.040Z,95841.70
2018-06-02T20:18:55.317Z,95833.34
2018-06-02T20:21:23.994Z,95834.80
2018-06-02T20:23:52.278Z,95833.91
2018-06-02T20:26:20.563Z,95835.89
2018-06-02T20:28:48.859Z,95839.62
2018-06-02T20:31:17.981Z,95838.37
2018-06-02T20:33:47.026Z,95847.35
2018-06-02T20:36:15.313Z,95838.02
2018-06-02T20:38:43.631Z,95844.20
2018-06-02T20:41:11.977Z,95844.83
2018-06-02T20:43:40.237Z,95838.56
2018-06-02T20:46:09.378Z,95840.84
2018-06-02T20:48:37.682Z,95837.42
2018-06-02T20:51:07.050Z,95842.92
2018-06-02T20:53:36.112Z,95843.77
2018-06-02T20:56:04.376Z,95846.27
2018-06-02T20:58:32.684Z,95845.95
2018-06-02T21:01:00.991Z,95843.59
2018-06-02T21:03:29.301Z,95847.84
2018-06-02T21:05:58.353Z,95852.70
2018-06-02T21:08:26.653Z,95851.42
2018-06-02T21:10:54.948Z,95850.61
2018-06-02T21:13:23.261Z,95851.08
2018-06-02T21:15:51.599Z,95850.19
2018-06-02T21:18:19.915Z,95853.63
2018-06-02T21:20:48.258Z,95858.33
2018-06-02T21:23:17.311Z,95863.36
2018-06-02T21:25:45.621Z,95862.55
2018-06-02T21:28:13.927Z,95867.93
2018-06-02T21:30:42.549Z,95862.87
2018-06-02T21:33:10.848Z,95857.98
2018-06-02T21:35:39.170Z,95862.41
2018-06-02T21:38:07.476Z,95857.44
2018-06-02T21:40:36.556Z,95864.27
2018-06-02T21:43:04.875Z,95863.78
2018-06-02T21:45:33.242Z,95867.95
2018-06-02T21:48:01.581Z,95867.95
2018-06-02T21:50:30.641Z,95861.54
2018-06-02T21:52:59.713Z,95865.89
2018-06-02T21:55:28.086Z,95870.23
2018-06-02T21:57:56.320Z,95868.91
2018-06-02T22:00:24.647Z,95877.11
2018-06-02T22:02:53.755Z,95883.66
2018-06-02T22:05:22.849Z,95881.14
2018-06-02T22:07:51.945Z,95875.69
2018-06-02T22:10:20.216Z,95885.45
2018-06-02T22:12:48.510Z,95882.66
2018-06-02T22:15:16.808Z,95885.61
2018-06-02T22:17:45.119Z,95885.59
2018-06-02T22:20:14.381Z,95886.45
2018-06-02T22:22:42.744Z,95882.39
2018-06-02T22:25:11.037Z,95883.25
2018-06-02T22:27:39.345Z,95883.39
2018-06-02T22:30:07.637Z,95882.53
2018-06-02T22:32:35.950Z,95884.80
2018-06-02T22:35:05.756Z,95888.13
2018-06-02T22:37:34.052Z,95880.95
2018-06-02T22:40:02.322Z,95880.66
2018-06-02T22:42:31.419Z,95885.11
2018-06-02T22:44:59.731Z,95881.80
2018-06-02T22:47:28.054Z,95873.39
2018-06-02T22:49:56.350Z,95873.61
2018-06-02T22:52:25.432Z,95872.03
2018-06-02T22:54:53.723Z,95873.58
2018-06-02T22:57:22.103Z,95864.70
2018-06-02T22:59:50.424Z,95863.06
2018-06-02T23:02:18.733Z,95872.47
2018-06-02T23:04:47.010Z,95871.12
2018-06-02T23:07:15.315Z,95877.48
2018-06-02T23:09:43.623Z,95877.03
2018-06-02T23:12:11.933Z,95879.95
2018-06-02T23:14:40.225Z,95877.11
2018-06-02T23:17:08.533Z,95874.80
2018-06-02T23:19:36.870Z,95878.83
2018-06-02T23:22:05.352Z,95873.22
2018-06-02T23:24:33.653Z,95869.94
2018-06-02T23:27:02.021Z,95870.94
2018-06-02T23:29:31.073Z,95863.16
2018-06-02T23:31:59.349Z,95861.91
2018-06-02T23:34:27.632Z,95861.91
2018-06-02T23:36:55.927Z,95865.98
2018-06-02T23:39:24.244Z,95859.58
2018-06-02T23:41:52.588Z,95859.11
2018-06-02T23:44:20.900Z,95864.16
2018-06-02T23:46:49.173Z,95863.55
2018-06-02T23:49:17.459Z,95859.94
2018-06-02T23:51:45.808Z,95860.70
2018-06-02T23:54:14.892Z,95857.41
2018-06-02T23:56:43.181Z,95856.25
2018-06-02T23:59:11.954Z,95862.25
